sensor_id;sensor_type;location;lat;lon;timestamp;temperature;humidity
57753;DHT22;43583;53.132;6.574;2023-02-26T00:01:17;1.50;98.00
57753;DHT22;43583;53.132;6.574;2023-02-26T00:03:43;1.40;98.30
57753;DHT22;43583;53.132;6.574;2023-02-26T00:06:12;1.30;98.40
57753;DHT22;43583;53.132;6.574;2023-02-26T00:08:38;1.30;98.60
57753;DHT22;43583;53.132;6.574;2023-02-26T00:11:06;1.30;98.70
57753;DHT22;43583;53.132;6.574;2023-02-26T00:13:32;1.20;98.90
57753;DHT22;43583;53.132;6.574;2023-02-26T00:15:59;1.20;99.30
57753;DHT22;43583;53.132;6.574;2023-02-26T00:18:25;1.20;99.20
57753;DHT22;43583;53.132;6.574;2023-02-26T00:20:52;1.30;99.00
57753;DHT22;43583;53.132;6.574;2023-02-26T00:23:18;1.30;99.10
57753;DHT22;43583;53.132;6.574;2023-02-26T00:25:45;1.30;99.00
57753;DHT22;43583;53.132;6.574;2023-02-26T00:28:11;1.40;98.30
57753;DHT22;43583;53.132;6.574;2023-02-26T00:30:37;1.50;96.70
57753;DHT22;43583;53.132;6.574;2023-02-26T00:33:03;1.60;96.60
57753;DHT22;43583;53.132;6.574;2023-02-26T00:35:30;1.60;95.40
57753;DHT22;43583;53.132;6.574;2023-02-26T00:38:03;1.60;95.40
57753;DHT22;43583;53.132;6.574;2023-02-26T00:40:47;1.60;94.90
57753;DHT22;43583;53.132;6.574;2023-02-26T00:43:19;1.70;94.30
57753;DHT22;43583;53.132;6.574;2023-02-26T00:51:49;1.60;93.80
57753;DHT22;43583;53.132;6.574;2023-02-26T00:54:22;1.70;93.70
57753;DHT22;43583;53.132;6.574;2023-02-26T00:56:50;1.60;94.30
57753;DHT22;43583;53.132;6.574;2023-02-26T00:59:16;1.60;94.30
57753;DHT22;43583;53.132;6.574;2023-02-26T01:01:43;1.60;94.20
57753;DHT22;43583;53.132;6.574;2023-02-26T01:04:09;1.60;94.60
57753;DHT22;43583;53.132;6.574;2023-02-26T01:06:41;1.50;94.60
57753;DHT22;43583;53.132;6.574;2023-02-26T01:11:34;1.40;95.00
57753;DHT22;43583;53.132;6.574;2023-02-26T01:14:00;1.40;95.00
57753;DHT22;43583;53.132;6.574;2023-02-26T01:16:27;1.40;94.90
57753;DHT22;43583;53.132;6.574;2023-02-26T01:21:35;1.30;95.20
57753;DHT22;43583;53.132;6.574;2023-02-26T01:24:05;1.30;95.20
57753;DHT22;43583;53.132;6.574;2023-02-26T01:26:31;1.30;95.10
57753;DHT22;43583;53.132;6.574;2023-02-26T01:28:56;1.20;95.30
57753;DHT22;43583;53.132;6.574;2023-02-26T01:31:33;1.10;95.50
57753;DHT22;43583;53.132;6.574;2023-02-26T01:40:00;1.00;95.70
57753;DHT22;43583;53.132;6.574;2023-02-26T01:42:30;1.00;95.70
57753;DHT22;43583;53.132;6.574;2023-02-26T01:45:03;0.90;95.70
57753;DHT22;43583;53.132;6.574;2023-02-26T01:47:52;0.90;96.00
57753;DHT22;43583;53.132;6.574;2023-02-26T01:50:21;0.80;96.00
57753;DHT22;43583;53.132;6.574;2023-02-26T01:55:22;0.70;96.40
57753;DHT22;43583;53.132;6.574;2023-02-26T01:57:50;0.60;96.50
57753;DHT22;43583;53.132;6.574;2023-02-26T02:00:17;0.50;96.70
57753;DHT22;43583;53.132;6.574;2023-02-26T02:02:43;0.40;96.90
57753;DHT22;43583;53.132;6.574;2023-02-26T02:05:15;0.40;97.20
57753;DHT22;43583;53.132;6.574;2023-02-26T02:07:43;0.40;97.40
57753;DHT22;43583;53.132;6.574;2023-02-26T02:10:10;0.30;97.50
57753;DHT22;43583;53.132;6.574;2023-02-26T02:18:41;0.20;97.90
57753;DHT22;43583;53.132;6.574;2023-02-26T02:23:47;0.10;98.30
57753;DHT22;43583;53.132;6.574;2023-02-26T02:34:45;-0.20;98.70
57753;DHT22;43583;53.132;6.574;2023-02-26T02:37:23;-0.30;98.90
57753;DHT22;43583;53.132;6.574;2023-02-26T02:40:01;-0.30;99.20
57753;DHT22;43583;53.132;6.574;2023-02-26T02:42:38;-0.30;99.20
57753;DHT22;43583;53.132;6.574;2023-02-26T02:45:16;-0.40;99.20
57753;DHT22;43583;53.132;6.574;2023-02-26T02:47:43;-0.50;99.80
57753;DHT22;43583;53.132;6.574;2023-02-26T02:50:24;-0.50;99.80
57753;DHT22;43583;53.132;6.574;2023-02-26T02:53:00;-0.50;99.80
57753;DHT22;43583;53.132;6.574;2023-02-26T02:55:33;-0.60;99.90
57753;DHT22;43583;53.132;6.574;2023-02-26T02:58:05;-0.70;99.90
57753;DHT22;43583;53.132;6.574;2023-02-26T03:00:34;-0.70;99.90
57753;DHT22;43583;53.132;6.574;2023-02-26T03:03:12;-0.80;99.90
57753;DHT22;43583;53.132;6.574;2023-02-26T03:05:41;-0.90;99.90
57753;DHT22;43583;53.132;6.574;2023-02-26T03:08:10;-0.90;99.90
57753;DHT22;43583;53.132;6.574;2023-02-26T03:10:36;-1.00;99.90
57753;DHT22;43583;53.132;6.574;2023-02-26T03:13:02;-1.00;99.90
57753;DHT22;43583;53.132;6.574;2023-02-26T03:15:38;-1.00;99.90
57753;DHT22;43583;53.132;6.574;2023-02-26T03:18:17;-1.10;99.90
57753;DHT22;43583;53.132;6.574;2023-02-26T03:21:01;-1.10;99.90
57753;DHT22;43583;53.132;6.574;2023-02-26T03:23:34;-1.10;99.90
57753;DHT22;43583;53.132;6.574;2023-02-26T03:26:09;-1.20;99.90
57753;DHT22;43583;53.132;6.574;2023-02-26T03:31:21;-1.20;99.90
57753;DHT22;43583;53.132;6.574;2023-02-26T03:34:15;-1.20;99.90
57753;DHT22;43583;53.132;6.574;2023-02-26T03:36:55;-1.30;99.90
57753;DHT22;43583;53.132;6.574;2023-02-26T03:39:32;-1.30;99.90
57753;DHT22;43583;53.132;6.574;2023-02-26T03:42:13;-1.40;99.90
57753;DHT22;43583;53.132;6.574;2023-02-26T03:44:55;-1.40;99.90
57753;DHT22;43583;53.132;6.574;2023-02-26T03:47:22;-1.50;99.90
57753;DHT22;43583;53.132;6.574;2023-02-26T03:49:55;-1.60;99.90
57753;DHT22;43583;53.132;6.574;2023-02-26T03:52:27;-1.60;99.90
57753;DHT22;43583;53.132;6.574;2023-02-26T03:55:01;-1.70;99.90
57753;DHT22;43583;53.132;6.574;2023-02-26T03:57:28;-1.70;99.90
57753;DHT22;43583;53.132;6.574;2023-02-26T03:59:54;-1.80;99.90
57753;DHT22;43583;53.132;6.574;2023-02-26T04:02:28;-1.80;99.90
57753;DHT22;43583;53.132;6.574;2023-02-26T04:04:58;-1.90;99.90
57753;DHT22;43583;53.132;6.574;2023-02-26T04:07:25;-1.90;99.90
57753;DHT22;43583;53.132;6.574;2023-02-26T04:09:51;-1.90;99.90
57753;DHT22;43583;53.132;6.574;2023-02-26T04:12:21;-1.90;99.90
57753;DHT22;43583;53.132;6.574;2023-02-26T04:14:48;-2.00;99.90
57753;DHT22;43583;53.132;6.574;2023-02-26T04:17:14;-2.00;99.90
57753;DHT22;43583;53.132;6.574;2023-02-26T04:19:39;-2.00;99.90
57753;DHT22;43583;53.132;6.574;2023-02-26T04:22:05;-2.00;99.90
57753;DHT22;43583;53.132;6.574;2023-02-26T04:24:31;-2.10;99.90
57753;DHT22;43583;53.132;6.574;2023-02-26T04:26:56;-2.10;99.90
57753;DHT22;43583;53.132;6.574;2023-02-26T04:29:22;-2.10;99.90
57753;DHT22;43583;53.132;6.574;2023-02-26T04:31:48;-2.20;99.90
57753;DHT22;43583;53.132;6.574;2023-02-26T04:34:13;-2.20;99.90
57753;DHT22;43583;53.132;6.574;2023-02-26T04:36:39;-2.20;99.90
57753;DHT22;43583;53.132;6.574;2023-02-26T04:39:05;-2.20;99.90
57753;DHT22;43583;53.132;6.574;2023-02-26T04:41:30;-2.20;99.90
57753;DHT22;43583;53.132;6.574;2023-02-26T04:43:56;-2.20;99.90
57753;DHT22;43583;53.132;6.574;2023-02-26T04:46:22;-2.20;99.90
57753;DHT22;43583;53.132;6.574;2023-02-26T04:48:47;-2.10;99.90
57753;DHT22;43583;53.132;6.574;2023-02-26T04:51:13;-2.10;99.90
57753;DHT22;43583;53.132;6.574;2023-02-26T04:53:39;-2.10;99.90
57753;DHT22;43583;53.132;6.574;2023-02-26T04:56:05;-2.10;99.90
57753;DHT22;43583;53.132;6.574;2023-02-26T04:58:32;-2.10;99.90
57753;DHT22;43583;53.132;6.574;2023-02-26T05:00:57;-2.00;99.90
57753;DHT22;43583;53.132;6.574;2023-02-26T05:03:23;-2.10;99.90
57753;DHT22;43583;53.132;6.574;2023-02-26T05:05:49;-2.10;99.90
57753;DHT22;43583;53.132;6.574;2023-02-26T05:08:14;-2.10;99.90
57753;DHT22;43583;53.132;6.574;2023-02-26T05:10:40;-2.10;99.90
57753;DHT22;43583;53.132;6.574;2023-02-26T05:13:05;-2.10;99.90
57753;DHT22;43583;53.132;6.574;2023-02-26T05:15:31;-2.10;99.90
57753;DHT22;43583;53.132;6.574;2023-02-26T05:17:58;-2.10;99.90
57753;DHT22;43583;53.132;6.574;2023-02-26T05:20:24;-2.10;99.90
57753;DHT22;43583;53.132;6.574;2023-02-26T05:22:50;-2.10;99.90
57753;DHT22;43583;53.132;6.574;2023-02-26T05:25:16;-1.90;99.90
57753;DHT22;43583;53.132;6.574;2023-02-26T05:27:42;-1.70;99.90
57753;DHT22;43583;53.132;6.574;2023-02-26T05:30:10;-1.50;99.90
57753;DHT22;43583;53.132;6.574;2023-02-26T05:32:37;-1.30;99.90
57753;DHT22;43583;53.132;6.574;2023-02-26T05:35:03;-1.20;99.90
57753;DHT22;43583;53.132;6.574;2023-02-26T05:37:29;-1.10;99.90
57753;DHT22;43583;53.132;6.574;2023-02-26T05:39:55;-1.00;99.90
57753;DHT22;43583;53.132;6.574;2023-02-26T05:42:21;-0.80;99.90
57753;DHT22;43583;53.132;6.574;2023-02-26T05:44:47;-0.80;99.90
57753;DHT22;43583;53.132;6.574;2023-02-26T05:47:13;-0.70;99.90
57753;DHT22;43583;53.132;6.574;2023-02-26T05:49:38;-0.60;99.90
57753;DHT22;43583;53.132;6.574;2023-02-26T05:52:04;-0.60;99.90
57753;DHT22;43583;53.132;6.574;2023-02-26T05:54:30;-0.50;99.90
57753;DHT22;43583;53.132;6.574;2023-02-26T05:56:55;-0.50;99.90
57753;DHT22;43583;53.132;6.574;2023-02-26T05:59:21;-0.40;99.90
57753;DHT22;43583;53.132;6.574;2023-02-26T06:01:47;-0.40;99.90
57753;DHT22;43583;53.132;6.574;2023-02-26T06:04:12;-0.40;99.90
57753;DHT22;43583;53.132;6.574;2023-02-26T06:06:39;-0.40;99.90
57753;DHT22;43583;53.132;6.574;2023-02-26T06:09:05;-0.40;99.90
57753;DHT22;43583;53.132;6.574;2023-02-26T06:11:31;-0.30;99.90
57753;DHT22;43583;53.132;6.574;2023-02-26T06:13:57;-0.30;99.90
57753;DHT22;43583;53.132;6.574;2023-02-26T06:16:23;-0.30;99.90
57753;DHT22;43583;53.132;6.574;2023-02-26T06:18:49;-0.30;99.90
57753;DHT22;43583;53.132;6.574;2023-02-26T06:21:16;-0.30;99.90
57753;DHT22;43583;53.132;6.574;2023-02-26T06:23:42;-0.30;99.90
57753;DHT22;43583;53.132;6.574;2023-02-26T06:26:08;-0.30;99.90
57753;DHT22;43583;53.132;6.574;2023-02-26T06:28:34;-0.30;99.90
57753;DHT22;43583;53.132;6.574;2023-02-26T06:31:00;-0.30;99.90
57753;DHT22;43583;53.132;6.574;2023-02-26T06:33:26;-0.20;99.90
57753;DHT22;43583;53.132;6.574;2023-02-26T06:35:52;-0.20;99.90
57753;DHT22;43583;53.132;6.574;2023-02-26T06:38:18;-0.20;99.90
57753;DHT22;43583;53.132;6.574;2023-02-26T06:40:44;-0.30;99.90
57753;DHT22;43583;53.132;6.574;2023-02-26T06:43:10;-0.30;99.90
57753;DHT22;43583;53.132;6.574;2023-02-26T06:45:36;-0.40;99.90
57753;DHT22;43583;53.132;6.574;2023-02-26T06:48:01;-0.40;99.90
57753;DHT22;43583;53.132;6.574;2023-02-26T06:50:27;-0.40;99.90
57753;DHT22;43583;53.132;6.574;2023-02-26T06:52:53;-0.40;99.90
57753;DHT22;43583;53.132;6.574;2023-02-26T06:55:19;-0.30;99.90
57753;DHT22;43583;53.132;6.574;2023-02-26T06:57:46;-0.30;99.90
57753;DHT22;43583;53.132;6.574;2023-02-26T07:00:13;-0.30;99.90
57753;DHT22;43583;53.132;6.574;2023-02-26T07:02:39;-0.30;99.90
57753;DHT22;43583;53.132;6.574;2023-02-26T07:05:05;-0.20;99.90
57753;DHT22;43583;53.132;6.574;2023-02-26T07:07:31;-0.20;99.90
57753;DHT22;43583;53.132;6.574;2023-02-26T07:09:56;-0.10;99.90
57753;DHT22;43583;53.132;6.574;2023-02-26T07:12:22;-0.10;99.90
57753;DHT22;43583;53.132;6.574;2023-02-26T07:14:48;0.00;99.90
57753;DHT22;43583;53.132;6.574;2023-02-26T07:17:13;0.00;99.90
57753;DHT22;43583;53.132;6.574;2023-02-26T07:19:49;0.20;99.90
57753;DHT22;43583;53.132;6.574;2023-02-26T07:22:15;0.30;99.90
57753;DHT22;43583;53.132;6.574;2023-02-26T07:24:42;0.30;99.90
57753;DHT22;43583;53.132;6.574;2023-02-26T07:27:08;0.30;99.90
57753;DHT22;43583;53.132;6.574;2023-02-26T07:29:34;0.40;99.90
57753;DHT22;43583;53.132;6.574;2023-02-26T07:31:59;0.50;99.90
57753;DHT22;43583;53.132;6.574;2023-02-26T07:34:25;0.50;99.90
57753;DHT22;43583;53.132;6.574;2023-02-26T07:36:51;0.60;99.90
57753;DHT22;43583;53.132;6.574;2023-02-26T07:39:16;0.60;99.90
57753;DHT22;43583;53.132;6.574;2023-02-26T07:41:42;0.70;99.90
57753;DHT22;43583;53.132;6.574;2023-02-26T07:44:07;0.80;99.90
57753;DHT22;43583;53.132;6.574;2023-02-26T07:46:33;0.90;99.90
57753;DHT22;43583;53.132;6.574;2023-02-26T07:48:58;1.10;99.90
57753;DHT22;43583;53.132;6.574;2023-02-26T07:51:24;1.20;99.90
57753;DHT22;43583;53.132;6.574;2023-02-26T07:53:50;1.40;99.90
57753;DHT22;43583;53.132;6.574;2023-02-26T07:56:15;1.60;99.90
57753;DHT22;43583;53.132;6.574;2023-02-26T07:58:41;1.80;99.90
57753;DHT22;43583;53.132;6.574;2023-02-26T08:01:07;2.10;99.90
57753;DHT22;43583;53.132;6.574;2023-02-26T08:03:32;2.30;99.90
57753;DHT22;43583;53.132;6.574;2023-02-26T08:05:58;2.60;99.90
57753;DHT22;43583;53.132;6.574;2023-02-26T08:08:27;2.70;99.90
57753;DHT22;43583;53.132;6.574;2023-02-26T08:10:53;2.80;99.90
57753;DHT22;43583;53.132;6.574;2023-02-26T08:13:19;2.80;99.90
57753;DHT22;43583;53.132;6.574;2023-02-26T08:15:46;3.00;99.90
57753;DHT22;43583;53.132;6.574;2023-02-26T08:18:12;3.90;99.90
57753;DHT22;43583;53.132;6.574;2023-02-26T08:20:38;5.20;99.90
57753;DHT22;43583;53.132;6.574;2023-02-26T08:23:03;6.40;99.90
57753;DHT22;43583;53.132;6.574;2023-02-26T08:25:29;7.30;99.90
57753;DHT22;43583;53.132;6.574;2023-02-26T08:27:55;7.70;99.90
57753;DHT22;43583;53.132;6.574;2023-02-26T08:30:23;7.50;98.60
57753;DHT22;43583;53.132;6.574;2023-02-26T08:32:48;6.90;97.60
57753;DHT22;43583;53.132;6.574;2023-02-26T08:35:14;6.20;97.10
57753;DHT22;43583;53.132;6.574;2023-02-26T08:37:40;5.60;98.20
57753;DHT22;43583;53.132;6.574;2023-02-26T08:40:07;5.30;99.30
57753;DHT22;43583;53.132;6.574;2023-02-26T08:42:33;5.80;99.90
57753;DHT22;43583;53.132;6.574;2023-02-26T08:44:59;6.70;99.20
57753;DHT22;43583;53.132;6.574;2023-02-26T08:47:24;7.60;97.60
57753;DHT22;43583;53.132;6.574;2023-02-26T08:49:50;8.30;95.80
57753;DHT22;43583;53.132;6.574;2023-02-26T08:52:16;8.80;95.20
57753;DHT22;43583;53.132;6.574;2023-02-26T08:54:42;9.30;94.50
57753;DHT22;43583;53.132;6.574;2023-02-26T08:57:07;9.50;93.40
57753;DHT22;43583;53.132;6.574;2023-02-26T08:59:33;9.30;92.30
57753;DHT22;43583;53.132;6.574;2023-02-26T09:01:59;9.30;91.30
57753;DHT22;43583;53.132;6.574;2023-02-26T09:04:26;9.40;90.90
57753;DHT22;43583;53.132;6.574;2023-02-26T09:06:53;9.40;90.20
57753;DHT22;43583;53.132;6.574;2023-02-26T09:09:18;9.30;89.50
57753;DHT22;43583;53.132;6.574;2023-02-26T09:11:44;9.30;89.20
57753;DHT22;43583;53.132;6.574;2023-02-26T09:14:10;9.70;89.20
57753;DHT22;43583;53.132;6.574;2023-02-26T09:16:36;9.70;86.00
57753;DHT22;43583;53.132;6.574;2023-02-26T09:19:03;9.80;84.30
57753;DHT22;43583;53.132;6.574;2023-02-26T09:21:30;10.10;82.60
57753;DHT22;43583;53.132;6.574;2023-02-26T09:23:58;9.60;79.50
57753;DHT22;43583;53.132;6.574;2023-02-26T09:26:24;9.60;78.70
57753;DHT22;43583;53.132;6.574;2023-02-26T09:28:50;9.50;77.50
57753;DHT22;43583;53.132;6.574;2023-02-26T09:31:16;9.60;78.10
57753;DHT22;43583;53.132;6.574;2023-02-26T09:33:43;9.60;77.70
57753;DHT22;43583;53.132;6.574;2023-02-26T09:36:08;9.70;77.00
57753;DHT22;43583;53.132;6.574;2023-02-26T09:38:35;9.70;76.10
57753;DHT22;43583;53.132;6.574;2023-02-26T09:41:05;9.70;75.30
57753;DHT22;43583;53.132;6.574;2023-02-26T09:49:04;9.60;76.40
57753;DHT22;43583;53.132;6.574;2023-02-26T09:51:33;9.60;74.80
57753;DHT22;43583;53.132;6.574;2023-02-26T09:54:06;9.40;75.60
57753;DHT22;43583;53.132;6.574;2023-02-26T09:56:36;8.90;75.60
57753;DHT22;43583;53.132;6.574;2023-02-26T09:59:02;8.40;76.50
57753;DHT22;43583;53.132;6.574;2023-02-26T10:01:29;8.00;77.40
57753;DHT22;43583;53.132;6.574;2023-02-26T10:07:05;7.40;79.60
57753;DHT22;43583;53.132;6.574;2023-02-26T10:09:53;7.00;79.70
57753;DHT22;43583;53.132;6.574;2023-02-26T10:12:27;6.80;81.00
57753;DHT22;43583;53.132;6.574;2023-02-26T10:23:06;6.30;84.70
57753;DHT22;43583;53.132;6.574;2023-02-26T10:25:46;6.30;84.50
57753;DHT22;43583;53.132;6.574;2023-02-26T10:31:21;6.40;84.80
57753;DHT22;43583;53.132;6.574;2023-02-26T10:34:09;6.30;84.80
57753;DHT22;43583;53.132;6.574;2023-02-26T10:39:50;6.10;84.30
57753;DHT22;43583;53.132;6.574;2023-02-26T10:42:22;6.10;86.30
57753;DHT22;43583;53.132;6.574;2023-02-26T10:45:06;6.30;87.00
57753;DHT22;43583;53.132;6.574;2023-02-26T10:50:47;6.30;85.20
57753;DHT22;43583;53.132;6.574;2023-02-26T10:53:13;6.00;85.60
57753;DHT22;43583;53.132;6.574;2023-02-26T10:55:51;6.30;87.20
57753;DHT22;43583;53.132;6.574;2023-02-26T10:58:22;6.50;88.60
57753;DHT22;43583;53.132;6.574;2023-02-26T11:00:51;6.70;86.70
57753;DHT22;43583;53.132;6.574;2023-02-26T11:03:21;6.80;86.80
57753;DHT22;43583;53.132;6.574;2023-02-26T11:05:47;6.90;86.20
57753;DHT22;43583;53.132;6.574;2023-02-26T11:08:26;7.00;85.40
57753;DHT22;43583;53.132;6.574;2023-02-26T11:10:56;7.10;86.40
57753;DHT22;43583;53.132;6.574;2023-02-26T11:13:27;7.20;86.90
57753;DHT22;43583;53.132;6.574;2023-02-26T11:15:55;7.40;86.60
57753;DHT22;43583;53.132;6.574;2023-02-26T11:18:48;7.00;84.10
57753;DHT22;43583;53.132;6.574;2023-02-26T11:21:22;6.70;84.40
57753;DHT22;43583;53.132;6.574;2023-02-26T11:23:54;6.30;85.40
57753;DHT22;43583;53.132;6.574;2023-02-26T11:26:26;6.20;87.00
57753;DHT22;43583;53.132;6.574;2023-02-26T11:28:57;5.90;86.70
57753;DHT22;43583;53.132;6.574;2023-02-26T11:31:25;5.80;87.50
57753;DHT22;43583;53.132;6.574;2023-02-26T11:33:58;5.80;88.10
57753;DHT22;43583;53.132;6.574;2023-02-26T11:36:29;5.80;88.40
57753;DHT22;43583;53.132;6.574;2023-02-26T11:39:05;5.80;88.60
57753;DHT22;43583;53.132;6.574;2023-02-26T11:41:36;6.10;88.80
57753;DHT22;43583;53.132;6.574;2023-02-26T11:44:14;6.20;88.50
57753;DHT22;43583;53.132;6.574;2023-02-26T11:47:11;6.40;89.20
57753;DHT22;43583;53.132;6.574;2023-02-26T11:49:42;6.80;90.10
57753;DHT22;43583;53.132;6.574;2023-02-26T11:52:27;6.80;87.40
57753;DHT22;43583;53.132;6.574;2023-02-26T11:54:59;6.80;86.30
57753;DHT22;43583;53.132;6.574;2023-02-26T11:57:27;7.00;88.60
57753;DHT22;43583;53.132;6.574;2023-02-26T11:59:54;7.00;88.20
57753;DHT22;43583;53.132;6.574;2023-02-26T12:02:23;7.00;87.70
57753;DHT22;43583;53.132;6.574;2023-02-26T12:04:55;7.00;85.30
57753;DHT22;43583;53.132;6.574;2023-02-26T12:07:22;6.90;85.70
57753;DHT22;43583;53.132;6.574;2023-02-26T12:09:48;7.10;87.10
57753;DHT22;43583;53.132;6.574;2023-02-26T12:20:37;7.10;86.10
57753;DHT22;43583;53.132;6.574;2023-02-26T12:23:26;7.10;86.90
57753;DHT22;43583;53.132;6.574;2023-02-26T12:26:28;7.20;87.70
57753;DHT22;43583;53.132;6.574;2023-02-26T12:29:28;7.20;87.70
57753;DHT22;43583;53.132;6.574;2023-02-26T12:35:05;6.80;87.50
57753;DHT22;43583;53.132;6.574;2023-02-26T12:43:09;6.70;87.20
57753;DHT22;43583;53.132;6.574;2023-02-26T12:53:52;6.70;87.20
57753;DHT22;43583;53.132;6.574;2023-02-26T12:56:57;6.70;86.40
57753;DHT22;43583;53.132;6.574;2023-02-26T12:59:36;6.60;85.20
57753;DHT22;43583;53.132;6.574;2023-02-26T13:13:18;6.60;89.10
57753;DHT22;43583;53.132;6.574;2023-02-26T13:15:56;6.60;89.20
57753;DHT22;43583;53.132;6.574;2023-02-26T13:18:48;6.50;88.80
57753;DHT22;43583;53.132;6.574;2023-02-26T13:21:24;6.50;89.00
57753;DHT22;43583;53.132;6.574;2023-02-26T13:26:54;6.40;87.70
57753;DHT22;43583;53.132;6.574;2023-02-26T13:29:25;6.50;88.50
57753;DHT22;43583;53.132;6.574;2023-02-26T13:32:01;6.50;88.10
57753;DHT22;43583;53.132;6.574;2023-02-26T13:37:42;6.70;89.50
57753;DHT22;43583;53.132;6.574;2023-02-26T13:43:13;6.50;90.00
57753;DHT22;43583;53.132;6.574;2023-02-26T13:48:20;6.10;89.30
57753;DHT22;43583;53.132;6.574;2023-02-26T13:53:41;6.10;90.70
57753;DHT22;43583;53.132;6.574;2023-02-26T13:58:43;6.20;90.40
57753;DHT22;43583;53.132;6.574;2023-02-26T14:01:27;6.10;90.40
57753;DHT22;43583;53.132;6.574;2023-02-26T14:06:45;6.00;90.30
57753;DHT22;43583;53.132;6.574;2023-02-26T14:19:41;6.40;90.10
57753;DHT22;43583;53.132;6.574;2023-02-26T14:27:35;6.30;88.90
57753;DHT22;43583;53.132;6.574;2023-02-26T14:35:40;5.80;87.90
57753;DHT22;43583;53.132;6.574;2023-02-26T14:40:56;6.00;90.30
57753;DHT22;43583;53.132;6.574;2023-02-26T14:43:40;6.10;90.20
57753;DHT22;43583;53.132;6.574;2023-02-26T14:46:08;5.90;89.30
57753;DHT22;43583;53.132;6.574;2023-02-26T14:48:35;5.80;89.40
57753;DHT22;43583;53.132;6.574;2023-02-26T14:51:05;5.70;89.90
57753;DHT22;43583;53.132;6.574;2023-02-26T15:05:52;5.60;90.90
57753;DHT22;43583;53.132;6.574;2023-02-26T15:08:29;5.70;90.50
57753;DHT22;43583;53.132;6.574;2023-02-26T15:13:36;5.60;90.80
57753;DHT22;43583;53.132;6.574;2023-02-26T15:19:31;5.70;90.90
57753;DHT22;43583;53.132;6.574;2023-02-26T15:22:20;5.70;90.90
57753;DHT22;43583;53.132;6.574;2023-02-26T15:24:49;5.40;90.50
57753;DHT22;43583;53.132;6.574;2023-02-26T15:27:18;5.20;90.90
57753;DHT22;43583;53.132;6.574;2023-02-26T15:29:45;5.00;91.10
57753;DHT22;43583;53.132;6.574;2023-02-26T15:32:23;4.80;91.50
57753;DHT22;43583;53.132;6.574;2023-02-26T15:35:18;4.80;91.80
57753;DHT22;43583;53.132;6.574;2023-02-26T15:37:53;4.80;92.30
57753;DHT22;43583;53.132;6.574;2023-02-26T15:40:20;4.90;92.10
57753;DHT22;43583;53.132;6.574;2023-02-26T15:42:49;5.00;92.20
57753;DHT22;43583;53.132;6.574;2023-02-26T15:45:25;5.00;91.90
57753;DHT22;43583;53.132;6.574;2023-02-26T15:47:55;5.00;91.90
57753;DHT22;43583;53.132;6.574;2023-02-26T15:50:25;5.00;92.00
57753;DHT22;43583;53.132;6.574;2023-02-26T15:52:55;5.00;92.30
57753;DHT22;43583;53.132;6.574;2023-02-26T15:55:23;5.00;92.80
57753;DHT22;43583;53.132;6.574;2023-02-26T15:57:49;4.90;92.60
57753;DHT22;43583;53.132;6.574;2023-02-26T16:00:18;4.80;92.90
57753;DHT22;43583;53.132;6.574;2023-02-26T16:02:49;4.90;92.50
57753;DHT22;43583;53.132;6.574;2023-02-26T16:05:15;4.90;92.60
57753;DHT22;43583;53.132;6.574;2023-02-26T16:07:42;4.90;92.40
57753;DHT22;43583;53.132;6.574;2023-02-26T16:10:17;4.90;92.60
57753;DHT22;43583;53.132;6.574;2023-02-26T16:12:45;5.00;92.40
57753;DHT22;43583;53.132;6.574;2023-02-26T16:15:23;4.90;92.60
57753;DHT22;43583;53.132;6.574;2023-02-26T16:17:52;4.80;92.60
57753;DHT22;43583;53.132;6.574;2023-02-26T16:20:21;4.80;93.20
57753;DHT22;43583;53.132;6.574;2023-02-26T16:22:59;4.80;93.30
57753;DHT22;43583;53.132;6.574;2023-02-26T16:25:36;4.70;93.40
57753;DHT22;43583;53.132;6.574;2023-02-26T16:28:05;4.70;93.70
57753;DHT22;43583;53.132;6.574;2023-02-26T16:30:40;4.60;94.10
57753;DHT22;43583;53.132;6.574;2023-02-26T16:33:11;4.50;94.00
57753;DHT22;43583;53.132;6.574;2023-02-26T16:35:43;4.40;94.10
57753;DHT22;43583;53.132;6.574;2023-02-26T16:38:18;4.40;93.90
57753;DHT22;43583;53.132;6.574;2023-02-26T16:40:44;4.40;94.10
57753;DHT22;43583;53.132;6.574;2023-02-26T16:45:49;4.50;94.40
57753;DHT22;43583;53.132;6.574;2023-02-26T16:48:25;4.40;94.20
57753;DHT22;43583;53.132;6.574;2023-02-26T16:51:02;4.40;94.30
57753;DHT22;43583;53.132;6.574;2023-02-26T16:53:44;4.30;94.30
57753;DHT22;43583;53.132;6.574;2023-02-26T16:56:14;4.20;94.30
57753;DHT22;43583;53.132;6.574;2023-02-26T16:59:03;4.10;94.40
57753;DHT22;43583;53.132;6.574;2023-02-26T17:01:35;4.10;94.40
57753;DHT22;43583;53.132;6.574;2023-02-26T17:04:02;4.10;94.50
57753;DHT22;43583;53.132;6.574;2023-02-26T17:06:29;4.10;94.50
57753;DHT22;43583;53.132;6.574;2023-02-26T17:08:57;4.00;94.40
57753;DHT22;43583;53.132;6.574;2023-02-26T17:11:31;4.00;94.30
57753;DHT22;43583;53.132;6.574;2023-02-26T17:14:40;3.90;94.40
57753;DHT22;43583;53.132;6.574;2023-02-26T17:17:07;3.90;94.90
57753;DHT22;43583;53.132;6.574;2023-02-26T17:19:32;3.80;95.00
57753;DHT22;43583;53.132;6.574;2023-02-26T17:21:58;3.80;95.10
57753;DHT22;43583;53.132;6.574;2023-02-26T17:24:33;3.80;95.50
57753;DHT22;43583;53.132;6.574;2023-02-26T17:27:02;3.80;95.20
57753;DHT22;43583;53.132;6.574;2023-02-26T17:29:37;3.80;95.40
57753;DHT22;43583;53.132;6.574;2023-02-26T17:32:16;3.80;95.50
57753;DHT22;43583;53.132;6.574;2023-02-26T17:34:42;3.70;95.50
57753;DHT22;43583;53.132;6.574;2023-02-26T17:37:11;3.70;95.80
57753;DHT22;43583;53.132;6.574;2023-02-26T17:39:36;3.70;96.20
57753;DHT22;43583;53.132;6.574;2023-02-26T17:42:02;3.70;96.50
57753;DHT22;43583;53.132;6.574;2023-02-26T17:44:28;3.70;96.60
57753;DHT22;43583;53.132;6.574;2023-02-26T17:46:54;3.70;96.70
57753;DHT22;43583;53.132;6.574;2023-02-26T17:49:19;3.60;96.80
57753;DHT22;43583;53.132;6.574;2023-02-26T17:51:45;3.50;97.30
57753;DHT22;43583;53.132;6.574;2023-02-26T17:54:10;3.50;97.10
57753;DHT22;43583;53.132;6.574;2023-02-26T17:56:36;3.50;97.20
57753;DHT22;43583;53.132;6.574;2023-02-26T17:59:02;3.60;97.20
57753;DHT22;43583;53.132;6.574;2023-02-26T18:01:28;3.60;97.20
57753;DHT22;43583;53.132;6.574;2023-02-26T18:03:54;3.50;97.60
57753;DHT22;43583;53.132;6.574;2023-02-26T18:06:20;3.60;97.30
57753;DHT22;43583;53.132;6.574;2023-02-26T18:08:46;3.60;97.10
57753;DHT22;43583;53.132;6.574;2023-02-26T18:11:14;3.50;97.10
57753;DHT22;43583;53.132;6.574;2023-02-26T18:13:40;3.50;97.30
57753;DHT22;43583;53.132;6.574;2023-02-26T18:16:19;3.40;97.10
57753;DHT22;43583;53.132;6.574;2023-02-26T18:18:45;3.50;97.00
57753;DHT22;43583;53.132;6.574;2023-02-26T18:21:11;3.40;97.00
57753;DHT22;43583;53.132;6.574;2023-02-26T18:23:37;3.30;97.10
57753;DHT22;43583;53.132;6.574;2023-02-26T18:26:03;3.40;97.10
57753;DHT22;43583;53.132;6.574;2023-02-26T18:28:29;3.30;97.20
57753;DHT22;43583;53.132;6.574;2023-02-26T18:30:55;3.30;97.10
57753;DHT22;43583;53.132;6.574;2023-02-26T18:33:22;3.20;97.10
57753;DHT22;43583;53.132;6.574;2023-02-26T18:35:53;3.20;97.20
57753;DHT22;43583;53.132;6.574;2023-02-26T18:38:24;3.10;97.40
57753;DHT22;43583;53.132;6.574;2023-02-26T18:40:50;3.00;97.40
57753;DHT22;43583;53.132;6.574;2023-02-26T18:43:16;2.90;97.50
57753;DHT22;43583;53.132;6.574;2023-02-26T18:45:45;2.70;97.70